createdAt,value
2022-12-22T00:01:16.418Z,8.10
2022-12-22T00:03:36.964Z,7.57
2022-12-22T00:05:57.504Z,7.47
2022-12-22T00:08:17.885Z,8.47
2022-12-22T00:10:38.092Z,9.40
2022-12-22T00:12:58.288Z,8.93
2022-12-22T00:15:20.003Z,8.70
2022-12-22T00:17:44.209Z,8.23
2022-12-22T00:20:04.713Z,7.73
2022-12-22T00:22:32.381Z,7.60
2022-12-22T00:24:52.825Z,6.87
2022-12-22T00:27:13.421Z,5.43
2022-12-22T00:29:34.533Z,5.10
2022-12-22T00:31:56.355Z,4.50
2022-12-22T00:34:16.947Z,4.47
2022-12-22T00:36:40.505Z,4.17
2022-12-22T00:39:00.776Z,4.60
2022-12-22T00:41:21.186Z,4.80
2022-12-22T00:43:41.614Z,5.67
2022-12-22T00:46:02.230Z,5.70
2022-12-22T00:48:26.554Z,6.20
2022-12-22T00:50:51.813Z,6.00
2022-12-22T00:53:12.818Z,6.20
2022-12-22T00:55:35.352Z,6.30
2022-12-22T00:57:55.784Z,5.90
2022-12-22T01:00:16.681Z,6.17
2022-12-22T01:02:37.186Z,4.43
2022-12-22T01:04:59.218Z,4.43
2022-12-22T01:07:19.865Z,3.73
2022-12-22T01:09:40.665Z,2.90
2022-12-22T01:12:00.985Z,3.07
2022-12-22T01:14:21.550Z,3.07
2022-12-22T01:16:41.739Z,3.17
2022-12-22T01:19:02.505Z,3.07
2022-12-22T01:21:24.673Z,3.23
2022-12-22T01:23:44.977Z,3.97
2022-12-22T01:26:05.319Z,3.33
2022-12-22T01:28:31.573Z,2.97
2022-12-22T01:30:52.107Z,3.30
2022-12-22T01:33:12.341Z,3.07
2022-12-22T01:35:37.629Z,3.83
2022-12-22T01:37:59.571Z,5.00
2022-12-22T01:40:20.112Z,5.30
2022-12-22T01:42:41.232Z,6.30
2022-12-22T01:45:01.811Z,4.97
2022-12-22T01:47:52.197Z,4.00
2022-12-22T01:50:12.875Z,4.67
2022-12-22T01:52:35.584Z,4.10
2022-12-22T01:54:57.775Z,3.60
2022-12-22T01:57:18.656Z,5.53
2022-12-22T01:59:39.284Z,4.27
2022-12-22T02:02:00.685Z,5.13
2022-12-22T02:04:20.984Z,4.80
2022-12-22T02:06:47.441Z,4.20
2022-12-22T02:09:20.222Z,3.50
2022-12-22T02:11:56.494Z,3.30
2022-12-22T02:14:30.177Z,3.10
2022-12-22T02:16:58.291Z,2.90
2022-12-22T02:19:26.074Z,2.83
2022-12-22T02:21:52.064Z,3.03
2022-12-22T02:24:32.671Z,3.90
2022-12-22T02:26:57.021Z,7.90
2022-12-22T02:29:18.009Z,8.33
2022-12-22T02:31:38.585Z,8.97
2022-12-22T02:33:59.882Z,7.40
2022-12-22T02:36:28.411Z,9.13
2022-12-22T02:38:59.867Z,8.13
2022-12-22T02:41:33.452Z,7.23
2022-12-22T02:44:11.688Z,7.50
2022-12-22T02:46:40.084Z,6.47
2022-12-22T02:49:05.623Z,5.67
2022-12-22T02:51:30.756Z,5.77
2022-12-22T02:53:51.552Z,4.33
2022-12-22T02:56:18.097Z,4.70
2022-12-22T02:58:38.764Z,4.20
2022-12-22T03:01:00.388Z,4.00
2022-12-22T03:03:20.685Z,3.80
2022-12-22T03:05:40.951Z,3.20
2022-12-22T03:08:07.708Z,3.27
2022-12-22T03:10:29.349Z,3.40
2022-12-22T03:12:49.826Z,3.80
2022-12-22T03:15:10.308Z,3.33
2022-12-22T03:17:32.214Z,3.10
2022-12-22T03:19:52.639Z,3.10
2022-12-22T03:22:13.337Z,2.60
2022-12-22T03:24:33.787Z,2.47
2022-12-22T03:26:39.029Z,2.73
2022-12-22T03:28:41.821Z,3.10
2022-12-22T03:30:44.684Z,3.07
2022-12-22T03:32:48.820Z,3.50
2022-12-22T03:34:51.752Z,3.50
2022-12-22T03:36:54.615Z,3.53
2022-12-22T03:38:57.417Z,3.57
2022-12-22T03:41:00.751Z,3.67
2022-12-22T03:43:20.898Z,4.90
2022-12-22T03:45:41.466Z,6.40
2022-12-22T03:47:44.393Z,6.80
2022-12-22T03:49:48.600Z,6.40
2022-12-22T03:51:52.731Z,5.50
2022-12-22T03:53:55.516Z,5.70
2022-12-22T03:56:04.107Z,4.93
2022-12-22T03:58:10.284Z,6.07
2022-12-22T04:00:13.861Z,5.57
2022-12-22T04:02:16.798Z,5.47
2022-12-22T04:04:21.640Z,4.70
2022-12-22T04:06:25.834Z,4.83
2022-12-22T04:08:28.646Z,4.93
2022-12-22T04:10:49.223Z,4.37
2022-12-22T04:12:55.971Z,4.00
2022-12-22T04:14:58.784Z,3.73
2022-12-22T04:17:01.944Z,3.60
2022-12-22T04:19:06.634Z,3.40
2022-12-22T04:21:09.438Z,2.97
2022-12-22T04:23:13.556Z,2.90
2022-12-22T04:25:17.392Z,2.80
2022-12-22T04:27:21.015Z,2.37
2022-12-22T04:29:24.080Z,2.37
2022-12-22T04:31:26.977Z,2.40
2022-12-22T04:33:29.997Z,2.20
2022-12-22T04:35:32.808Z,2.10
2022-12-22T04:37:36.054Z,2.70
2022-12-22T04:39:40.186Z,2.50
2022-12-22T04:41:43.013Z,2.87
2022-12-22T04:43:48.924Z,2.20
2022-12-22T04:45:54.266Z,2.17
2022-12-22T04:47:57.057Z,1.80
2022-12-22T04:50:00.161Z,2.30
2022-12-22T04:52:03.052Z,2.20
2022-12-22T04:54:06.073Z,3.10
2022-12-22T04:56:10.617Z,4.67
2022-12-22T04:58:13.414Z,3.47
2022-12-22T05:00:17.293Z,2.60
2022-12-22T05:02:20.201Z,2.30
2022-12-22T05:04:25.911Z,1.87
2022-12-22T05:06:28.800Z,4.27
2022-12-22T05:08:31.581Z,2.37
2022-12-22T05:10:34.441Z,1.80
2022-12-22T05:12:56.922Z,1.63
2022-12-22T05:14:59.711Z,1.90
2022-12-22T05:17:02.618Z,1.77
2022-12-22T05:19:05.537Z,1.70
2022-12-22T05:21:12.145Z,2.27
2022-12-22T05:23:14.898Z,2.60
2022-12-22T05:25:19.908Z,2.50
2022-12-22T05:27:22.872Z,2.10
2022-12-22T05:29:27.299Z,1.77
2022-12-22T05:31:30.161Z,2.00
2022-12-22T05:33:33.084Z,2.10
2022-12-22T05:35:35.892Z,2.00
2022-12-22T05:37:38.767Z,1.40
2022-12-22T05:39:41.499Z,1.30
2022-12-22T05:41:44.367Z,1.53
2022-12-22T05:43:47.543Z,1.63
2022-12-22T05:45:53.204Z,3.13
2022-12-22T05:47:56.379Z,10.27
2022-12-22T05:49:59.257Z,16.60
2022-12-22T05:52:02.124Z,19.57
2022-12-22T05:54:05.143Z,23.57
2022-12-22T05:56:09.427Z,22.20
2022-12-22T05:58:12.229Z,26.53
2022-12-22T06:00:17.624Z,24.40
2022-12-22T06:02:22.743Z,21.90
2022-12-22T06:04:26.187Z,21.40
2022-12-22T06:06:29.433Z,27.87
2022-12-22T06:08:32.370Z,32.83
2022-12-22T06:10:35.180Z,29.37
2022-12-22T06:12:38.052Z,29.17
2022-12-22T06:14:40.892Z,23.17
2022-12-22T06:16:43.737Z,28.90
2022-12-22T06:18:47.924Z,30.43
2022-12-22T06:20:53.480Z,33.20
2022-12-22T06:22:56.324Z,27.90
2022-12-22T06:24:59.149Z,26.03
2022-12-22T06:27:02.335Z,27.47
2022-12-22T06:29:05.429Z,25.97
2022-12-22T06:31:08.255Z,25.30
2022-12-22T06:33:11.137Z,19.10
2022-12-22T06:35:15.288Z,14.47
2022-12-22T06:37:18.073Z,14.87
2022-12-22T06:39:21.165Z,13.80
2022-12-22T06:41:37.939Z,12.63
2022-12-22T06:43:40.979Z,12.83
2022-12-22T06:45:45.249Z,9.90
2022-12-22T06:47:48.133Z,9.13
2022-12-22T06:49:51.427Z,8.47
2022-12-22T06:51:55.555Z,12.07
2022-12-22T06:53:58.425Z,9.60
2022-12-22T06:56:01.181Z,9.43
2022-12-22T06:58:04.885Z,7.30
2022-12-22T07:00:09.007Z,6.00
2022-12-22T07:02:12.451Z,5.37
2022-12-22T07:04:19.795Z,5.67
2022-12-22T07:06:23.563Z,5.30
2022-12-22T07:08:27.705Z,5.23
2022-12-22T07:10:44.418Z,4.97
2022-12-22T07:12:47.242Z,4.67
2022-12-22T07:14:50.060Z,2.13
2022-12-22T07:16:52.901Z,2.50
2022-12-22T07:18:55.779Z,2.30
2022-12-22T07:20:59.242Z,2.70
2022-12-22T07:23:01.999Z,3.63
2022-12-22T07:25:06.788Z,5.10
2022-12-22T07:27:10.042Z,9.27
2022-12-22T07:29:13.014Z,8.90
2022-12-22T07:31:18.589Z,11.33
2022-12-22T07:33:22.162Z,10.63
2022-12-22T07:35:24.990Z,12.57
2022-12-22T07:37:27.816Z,10.87
2022-12-22T07:39:30.567Z,11.97
2022-12-22T07:41:52.424Z,10.27
2022-12-22T07:43:55.971Z,7.83
2022-12-22T07:46:01.668Z,6.33
2022-12-22T07:48:26.354Z,5.73
2022-12-22T07:50:28.586Z,5.00
2022-12-22T07:52:31.636Z,5.00
2022-12-22T07:54:41.428Z,4.60
2022-12-22T07:56:47.931Z,4.17
2022-12-22T07:58:50.931Z,4.07
2022-12-22T08:00:58.647Z,5.37
2022-12-22T08:03:02.735Z,4.47
2022-12-22T08:05:06.898Z,4.50
2022-12-22T08:07:09.810Z,4.20
2022-12-22T08:09:16.337Z,4.80
2022-12-22T08:11:19.468Z,4.50
2022-12-22T08:13:23.613Z,4.63
2022-12-22T08:15:26.604Z,4.00
2022-12-22T08:17:30.260Z,4.23
2022-12-22T08:19:34.140Z,4.20
2022-12-22T08:21:37.022Z,4.60
2022-12-22T08:23:39.925Z,7.67
2022-12-22T08:25:42.804Z,6.17
2022-12-22T08:27:50.325Z,4.50
2022-12-22T08:29:59.236Z,3.60
2022-12-22T08:32:02.886Z,4.40
2022-12-22T08:34:08.838Z,3.63
2022-12-22T08:36:12.656Z,3.30
2022-12-22T08:38:15.971Z,3.47
2022-12-22T08:40:24.154Z,3.63
2022-12-22T08:42:28.035Z,2.73
2022-12-22T08:44:33.353Z,3.10
2022-12-22T08:46:37.648Z,3.13
2022-12-22T08:48:40.516Z,2.57
2022-12-22T08:50:43.462Z,3.37
2022-12-22T08:52:46.351Z,3.07
2022-12-22T08:54:49.133Z,2.93
2022-12-22T08:56:53.269Z,2.20
2022-12-22T08:58:56.059Z,1.77
2022-12-22T09:00:59.953Z,1.03
2022-12-22T09:03:04.760Z,1.10
2022-12-22T09:05:08.469Z,1.37
2022-12-22T09:07:11.591Z,1.83
2022-12-22T09:09:16.395Z,3.40
2022-12-22T09:11:19.278Z,3.47
2022-12-22T09:13:22.129Z,3.20
2022-12-22T09:15:24.999Z,2.90
2022-12-22T09:17:28.021Z,3.43
2022-12-22T09:19:32.253Z,2.80
2022-12-22T09:21:36.310Z,5.10
2022-12-22T09:23:39.108Z,4.13
2022-12-22T09:25:41.877Z,4.30
2022-12-22T09:27:44.715Z,3.17
2022-12-22T09:29:47.490Z,2.70
2022-12-22T09:31:50.367Z,2.80
2022-12-22T09:33:53.685Z,7.20
2022-12-22T09:35:58.174Z,9.07
2022-12-22T09:38:01.083Z,7.80
2022-12-22T09:40:04.251Z,4.20
2022-12-22T09:42:14.415Z,4.00
2022-12-22T09:44:24.518Z,7.40
2022-12-22T09:46:30.325Z,4.97
2022-12-22T09:48:37.197Z,7.37
2022-12-22T09:50:41.866Z,3.00
2022-12-22T09:52:50.201Z,2.60
2022-12-22T09:54:53.176Z,4.37
2022-12-22T09:56:56.746Z,3.73
2022-12-22T09:59:01.272Z,3.27
2022-12-22T10:01:16.167Z,1.80
2022-12-22T10:03:34.121Z,1.40
2022-12-22T10:05:42.858Z,1.13
2022-12-22T10:07:46.962Z,1.70
2022-12-22T10:09:51.487Z,1.00
2022-12-22T10:11:57.536Z,2.30
2022-12-22T10:14:01.654Z,1.93
2022-12-22T10:16:18.064Z,3.67
2022-12-22T10:18:23.109Z,2.17
2022-12-22T10:20:28.141Z,0.87
2022-12-22T10:22:33.945Z,2.17
2022-12-22T10:24:38.202Z,0.80
2022-12-22T10:26:41.211Z,0.70
2022-12-22T10:28:47.936Z,0.80
2022-12-22T10:30:51.334Z,1.07
2022-12-22T10:33:05.704Z,0.90
2022-12-22T10:35:08.921Z,0.83
2022-12-22T10:37:11.857Z,0.90
2022-12-22T10:39:22.419Z,0.50
2022-12-22T10:41:29.683Z,1.10
2022-12-22T10:43:35.988Z,0.60
2022-12-22T10:45:38.891Z,0.70
2022-12-22T10:47:49.055Z,0.60
2022-12-22T10:52:11.586Z,6.50
2022-12-22T10:54:27.482Z,1.30
2022-12-22T10:56:33.669Z,1.53
2022-12-22T10:58:49.108Z,0.80
2022-12-22T11:01:03.826Z,1.37
2022-12-22T11:03:08.235Z,2.73
2022-12-22T11:05:12.578Z,1.23
2022-12-22T11:07:15.697Z,1.57
2022-12-22T11:09:33.223Z,1.90
2022-12-22T11:11:43.602Z,1.60
2022-12-22T11:13:59.701Z,1.10
2022-12-22T11:16:09.942Z,0.80
2022-12-22T11:18:26.645Z,1.10
2022-12-22T11:20:47.547Z,0.67
2022-12-22T11:22:56.988Z,1.63
2022-12-22T11:25:17.865Z,2.00
2022-12-22T11:27:35.950Z,1.30
2022-12-22T11:30:03.785Z,0.60
2022-12-22T11:32:27.752Z,1.20
2022-12-22T11:34:46.700Z,1.50
2022-12-22T11:37:05.631Z,1.60
2022-12-22T11:39:14.284Z,1.47
2022-12-22T11:41:30.074Z,0.90
2022-12-22T11:43:45.515Z,1.10
2022-12-22T11:45:58.256Z,0.83
2022-12-22T11:48:09.132Z,1.47
2022-12-22T11:51:00.928Z,0.70
2022-12-22T11:53:04.610Z,0.80
2022-12-22T11:55:18.275Z,3.07
2022-12-22T11:57:32.946Z,2.40
2022-12-22T11:59:48.166Z,1.27
2022-12-22T12:02:24.030Z,0.70
2022-12-22T12:04:51.181Z,0.80
2022-12-22T12:07:14.164Z,0.80
2022-12-22T12:09:35.296Z,0.87
2022-12-22T12:11:44.840Z,0.60
2022-12-22T12:13:57.858Z,0.80
2022-12-22T12:16:15.607Z,1.03
2022-12-22T12:18:44.170Z,0.90
2022-12-22T12:20:57.862Z,1.10
2022-12-22T12:23:17.201Z,1.40
2022-12-22T12:25:29.108Z,1.20
2022-12-22T12:27:46.515Z,1.20
2022-12-22T12:30:35.851Z,1.30
2022-12-22T12:32:25.814Z,1.40
2022-12-22T12:34:32.455Z,1.20
2022-12-22T12:36:42.371Z,1.40
2022-12-22T12:39:09.053Z,1.50
2022-12-22T12:41:21.582Z,1.57
2022-12-22T12:43:24.946Z,1.40
2022-12-22T12:45:36.573Z,1.70
2022-12-22T12:47:41.179Z,1.50
2022-12-22T12:50:03.092Z,1.27
2022-12-22T12:52:06.818Z,1.60
2022-12-22T12:54:40.839Z,1.20
2022-12-22T12:56:59.743Z,1.47
2022-12-22T12:59:02.541Z,1.40
2022-12-22T13:01:06.568Z,1.50
2022-12-22T13:03:25.251Z,1.27
2022-12-22T13:05:51.161Z,1.40
2022-12-22T13:08:24.669Z,1.40
2022-12-22T13:10:27.696Z,1.30
2022-12-22T13:12:41.812Z,1.30
2022-12-22T13:14:57.773Z,1.30
2022-12-22T13:17:34.162Z,1.20
2022-12-22T13:19:38.482Z,1.30
2022-12-22T13:21:54.416Z,1.23
2022-12-22T13:24:24.244Z,1.60
2022-12-22T13:26:33.383Z,1.60
2022-12-22T13:28:40.417Z,1.90
2022-12-22T13:30:48.255Z,1.60
2022-12-22T13:32:51.793Z,1.67
2022-12-22T13:37:30.672Z,1.60
2022-12-22T13:39:33.483Z,1.93
2022-12-22T13:41:36.989Z,2.07
2022-12-22T13:43:40.713Z,1.67
2022-12-22T13:45:45.229Z,1.73
2022-12-22T13:47:50.140Z,2.30
2022-12-22T13:50:08.222Z,1.83
2022-12-22T13:52:17.473Z,1.83
2022-12-22T13:54:26.286Z,2.10
2022-12-22T13:56:36.363Z,2.60
2022-12-22T13:58:41.620Z,2.57
2022-12-22T14:00:44.899Z,2.30
2022-12-22T14:02:47.860Z,2.20
2022-12-22T14:05:07.934Z,1.83
2022-12-22T14:07:17.241Z,2.43
2022-12-22T14:09:21.967Z,2.33
2022-12-22T14:11:24.828Z,2.43
2022-12-22T14:13:32.378Z,2.20
2022-12-22T14:15:35.796Z,2.73
2022-12-22T14:17:46.210Z,2.70
2022-12-22T14:19:56.468Z,2.53
2022-12-22T14:22:04.265Z,2.87
2022-12-22T14:24:13.183Z,2.80
2022-12-22T14:26:20.780Z,3.00
2022-12-22T14:28:27.534Z,2.90
2022-12-22T14:30:38.207Z,3.37
2022-12-22T14:32:47.880Z,3.73
2022-12-22T14:34:55.195Z,3.93
2022-12-22T14:36:58.889Z,4.20
2022-12-22T14:39:09.133Z,3.73
2022-12-22T14:41:35.755Z,3.67
2022-12-22T14:43:38.557Z,4.70
2022-12-22T14:45:41.673Z,3.63
2022-12-22T14:47:44.542Z,4.47
2022-12-22T14:49:50.272Z,4.60
2022-12-22T14:52:00.995Z,4.23
2022-12-22T14:54:04.559Z,3.77
2022-12-22T14:56:14.399Z,4.37
2022-12-22T14:58:21.181Z,4.43
2022-12-22T15:00:42.943Z,4.50
2022-12-22T15:02:52.113Z,4.20
2022-12-22T15:05:08.846Z,4.97
2022-12-22T15:07:54.405Z,5.67
2022-12-22T15:10:13.875Z,4.90
2022-12-22T15:12:11.072Z,5.20
2022-12-22T15:14:17.002Z,5.20
2022-12-22T15:16:22.336Z,4.43
2022-12-22T15:18:28.000Z,5.73
2022-12-22T15:20:38.781Z,5.53
2022-12-22T15:22:42.303Z,5.30
2022-12-22T15:24:45.094Z,5.17
2022-12-22T15:26:48.494Z,5.50
2022-12-22T15:28:52.613Z,5.17
2022-12-22T15:30:55.666Z,5.17
2022-12-22T15:32:58.523Z,5.73
2022-12-22T15:35:03.326Z,6.10
2022-12-22T15:37:06.235Z,5.50
2022-12-22T15:39:15.732Z,6.10
2022-12-22T15:41:18.527Z,7.33
2022-12-22T15:45:46.214Z,6.10
2022-12-22T15:47:51.596Z,5.70
2022-12-22T15:49:55.167Z,5.70
2022-12-22T15:52:00.132Z,6.67
2022-12-22T15:54:03.344Z,5.30
2022-12-22T15:56:10.117Z,6.20
2022-12-22T15:58:17.873Z,6.37
2022-12-22T16:00:22.041Z,6.73
2022-12-22T16:02:26.561Z,6.13
2022-12-22T16:04:29.677Z,6.20
2022-12-22T16:06:32.698Z,6.67
2022-12-22T16:08:38.937Z,6.07
2022-12-22T16:10:42.551Z,6.40
2022-12-22T16:12:50.109Z,5.77
2022-12-22T16:14:55.990Z,5.47
2022-12-22T16:16:58.769Z,6.47
2022-12-22T16:19:02.952Z,6.33
2022-12-22T16:21:08.438Z,6.80
2022-12-22T16:23:17.152Z,6.13
2022-12-22T16:25:24.168Z,7.00
2022-12-22T16:27:26.987Z,5.57
2022-12-22T16:29:29.898Z,6.63
2022-12-22T16:31:32.850Z,6.20
2022-12-22T16:33:37.536Z,6.97
2022-12-22T16:35:42.338Z,6.07
2022-12-22T16:37:45.767Z,6.53
2022-12-22T16:39:48.604Z,9.00
2022-12-22T16:41:59.660Z,7.93
2022-12-22T16:46:28.352Z,6.97
2022-12-22T16:48:35.552Z,6.63
2022-12-22T16:50:38.550Z,6.90
2022-12-22T16:52:43.192Z,8.17
2022-12-22T16:54:52.265Z,7.50
2022-12-22T16:56:56.140Z,7.03
2022-12-22T16:59:04.488Z,10.00
2022-12-22T17:01:07.530Z,8.47
2022-12-22T17:03:16.320Z,7.40
2022-12-22T17:05:27.001Z,8.73
2022-12-22T17:07:33.243Z,8.63
2022-12-22T17:09:46.257Z,8.97
2022-12-22T17:11:49.600Z,7.90
2022-12-22T17:13:54.654Z,8.90
2022-12-22T17:15:57.880Z,8.17
2022-12-22T17:18:01.727Z,8.63
2022-12-22T17:20:05.017Z,10.13
2022-12-22T17:22:18.981Z,9.60
2022-12-22T17:24:28.194Z,8.37
2022-12-22T17:26:34.654Z,7.83
2022-12-22T17:28:39.392Z,8.60
2022-12-22T17:30:42.178Z,8.43
2022-12-22T17:32:45.411Z,8.00
2022-12-22T17:34:48.911Z,7.40
2022-12-22T17:36:52.011Z,8.00
2022-12-22T17:38:55.434Z,8.20
2022-12-22T17:40:58.289Z,9.20
2022-12-22T17:43:02.604Z,13.53
2022-12-22T17:45:13.339Z,16.80
2022-12-22T17:47:17.703Z,9.87
2022-12-22T17:49:22.278Z,8.33
2022-12-22T17:51:28.597Z,8.53
2022-12-22T17:53:34.967Z,10.80
2022-12-22T17:58:06.343Z,10.17
2022-12-22T18:00:18.392Z,7.47
2022-12-22T18:02:23.516Z,7.53
2022-12-22T18:04:27.010Z,8.23
2022-12-22T18:06:36.748Z,8.27
2022-12-22T18:08:39.603Z,8.33
2022-12-22T18:10:42.740Z,8.97
2022-12-22T18:12:45.890Z,8.77
2022-12-22T18:14:50.705Z,7.90
2022-12-22T18:16:53.518Z,8.53
2022-12-22T18:18:56.404Z,8.30
2022-12-22T18:21:07.606Z,8.20
2022-12-22T18:23:16.814Z,8.90
2022-12-22T18:25:22.406Z,9.37
2022-12-22T18:27:25.570Z,7.60
2022-12-22T18:29:28.367Z,8.60
2022-12-22T18:31:32.810Z,8.53
2022-12-22T18:33:35.606Z,8.37
2022-12-22T18:35:39.831Z,7.80
2022-12-22T18:37:43.236Z,9.00
2022-12-22T18:39:46.212Z,10.43
2022-12-22T18:41:49.253Z,13.60
2022-12-22T18:43:52.449Z,9.77
2022-12-22T18:45:55.328Z,17.90
2022-12-22T18:47:59.488Z,11.00
2022-12-22T18:50:03.733Z,10.20
2022-12-22T18:52:18.220Z,23.23
2022-12-22T18:54:25.421Z,12.87
2022-12-22T18:56:28.306Z,12.47
2022-12-22T18:58:31.110Z,9.97
2022-12-22T19:00:37.638Z,12.40
2022-12-22T19:02:40.752Z,13.13
2022-12-22T19:04:45.232Z,13.53
2022-12-22T19:06:48.055Z,14.90
2022-12-22T19:08:51.675Z,17.87
2022-12-22T19:10:56.861Z,17.83
2022-12-22T19:13:00.222Z,19.13
2022-12-22T19:15:06.197Z,18.43
2022-12-22T19:17:14.876Z,25.73
2022-12-22T19:19:19.193Z,24.47
2022-12-22T19:21:23.493Z,25.03
2022-12-22T19:23:27.044Z,22.60
2022-12-22T19:25:32.520Z,23.70
2022-12-22T19:27:35.349Z,24.87
2022-12-22T19:29:38.149Z,20.57
2022-12-22T19:31:41.368Z,21.77
2022-12-22T19:33:44.930Z,22.30
2022-12-22T19:35:47.708Z,26.27
2022-12-22T19:37:54.086Z,27.57
2022-12-22T19:39:56.870Z,22.03
2022-12-22T19:41:59.818Z,21.90
2022-12-22T19:44:02.962Z,19.03
2022-12-22T19:46:05.901Z,19.63
2022-12-22T19:48:18.890Z,19.30
2022-12-22T19:50:24.300Z,20.20
2022-12-22T19:52:27.654Z,19.10
2022-12-22T19:54:33.348Z,17.83
2022-12-22T19:56:36.300Z,19.17
2022-12-22T19:58:41.434Z,20.53
2022-12-22T20:00:44.930Z,20.27
2022-12-22T20:02:49.392Z,19.80
2022-12-22T20:04:52.929Z,17.80
2022-12-22T20:06:55.715Z,18.07
2022-12-22T20:09:01.639Z,19.17
2022-12-22T20:11:13.820Z,17.17
2022-12-22T20:13:19.021Z,20.27
2022-12-22T20:15:24.010Z,17.93
2022-12-22T20:17:26.861Z,20.93
2022-12-22T20:19:30.043Z,21.07
2022-12-22T20:21:32.879Z,22.17
2022-12-22T20:23:38.421Z,31.17
2022-12-22T20:25:43.250Z,27.67
2022-12-22T20:27:47.497Z,22.70
2022-12-22T20:29:50.292Z,20.63
2022-12-22T20:31:53.718Z,18.87
2022-12-22T20:33:56.633Z,17.13
2022-12-22T20:36:01.311Z,17.50
2022-12-22T20:38:19.660Z,17.37
2022-12-22T20:40:25.886Z,17.60
2022-12-22T20:42:28.905Z,16.73
2022-12-22T20:44:33.588Z,18.17
2022-12-22T20:46:36.683Z,16.87
2022-12-22T20:48:42.414Z,18.07
2022-12-22T20:50:45.396Z,16.20
2022-12-22T20:52:48.654Z,15.40
2022-12-22T20:54:52.182Z,17.30
2022-12-22T20:56:55.188Z,15.63
2022-12-22T20:58:59.380Z,16.57
2022-12-22T21:01:03.872Z,13.73
2022-12-22T21:03:06.832Z,14.33
2022-12-22T21:05:10.175Z,14.57
2022-12-22T21:07:13.099Z,9.47
2022-12-22T21:09:17.140Z,9.17
2022-12-22T21:11:20.342Z,13.57
2022-12-22T21:13:24.146Z,9.20
2022-12-22T21:15:29.141Z,8.63
2022-12-22T21:17:33.264Z,8.73
2022-12-22T21:19:36.298Z,7.47
2022-12-22T21:21:39.079Z,7.43
2022-12-22T21:23:42.191Z,9.20
2022-12-22T21:25:47.789Z,7.90
2022-12-22T21:27:52.916Z,6.83
2022-12-22T21:29:55.866Z,6.80
2022-12-22T21:31:58.844Z,4.87
2022-12-22T21:34:03.112Z,6.50
2022-12-22T21:36:13.438Z,6.87
2022-12-22T21:38:17.906Z,4.50
2022-12-22T21:40:22.945Z,5.00
2022-12-22T21:42:25.778Z,5.03
2022-12-22T21:44:28.734Z,5.40
2022-12-22T21:46:32.649Z,8.97
2022-12-22T21:48:35.558Z,4.90
2022-12-22T21:50:39.864Z,4.27
2022-12-22T21:52:50.010Z,4.83
2022-12-22T21:54:52.856Z,4.73
2022-12-22T21:56:55.922Z,4.43
2022-12-22T21:59:03.511Z,4.90
2022-12-22T22:01:10.531Z,11.87
2022-12-22T22:03:14.652Z,4.43
2022-12-22T22:05:26.645Z,4.20
2022-12-22T22:07:30.916Z,6.03
2022-12-22T22:09:33.840Z,12.23
2022-12-22T22:11:58.902Z,5.83
2022-12-22T22:14:02.179Z,4.57
2022-12-22T22:16:05.477Z,5.53
2022-12-22T22:18:08.410Z,5.80
2022-12-22T22:20:15.069Z,5.40
2022-12-22T22:22:17.837Z,4.73
2022-12-22T22:24:22.030Z,6.67
2022-12-22T22:26:24.871Z,5.60
2022-12-22T22:28:27.929Z,7.63
2022-12-22T22:30:30.803Z,4.83
2022-12-22T22:32:33.882Z,5.00
2022-12-22T22:34:36.658Z,4.80
2022-12-22T22:36:39.559Z,4.67
2022-12-22T22:38:42.373Z,4.47
2022-12-22T22:40:47.707Z,4.60
2022-12-22T22:42:50.798Z,3.73
2022-12-22T22:44:53.928Z,4.73
2022-12-22T22:46:56.862Z,3.90
2022-12-22T22:49:00.959Z,3.77
2022-12-22T22:51:03.853Z,3.63
2022-12-22T22:53:06.612Z,4.63
2022-12-22T22:55:12.625Z,3.10
2022-12-22T22:57:17.309Z,3.93
2022-12-22T22:59:20.206Z,3.33
2022-12-22T23:01:23.065Z,3.90
2022-12-22T23:03:25.995Z,3.77
2022-12-22T23:05:28.871Z,3.50
2022-12-22T23:07:32.007Z,3.37
2022-12-22T23:09:34.881Z,3.73
2022-12-22T23:11:37.814Z,3.53
2022-12-22T23:13:43.190Z,3.20
2022-12-22T23:15:54.563Z,3.83
2022-12-22T23:17:57.445Z,3.27
2022-12-22T23:20:00.257Z,3.23
2022-12-22T23:22:03.430Z,3.40
2022-12-22T23:24:07.105Z,2.90
2022-12-22T23:26:10.687Z,2.87
2022-12-22T23:28:13.804Z,3.30
2022-12-22T23:30:18.180Z,2.47
2022-12-22T23:32:21.041Z,2.47
2022-12-22T23:34:23.868Z,2.60
2022-12-22T23:36:26.769Z,2.13
2022-12-22T23:38:29.546Z,2.73
2022-12-22T23:40:51.886Z,2.50
2022-12-22T23:42:57.177Z,2.57
2022-12-22T23:45:00.169Z,2.50
2022-12-22T23:47:04.416Z,2.00
2022-12-22T23:49:07.539Z,2.20
2022-12-22T23:51:12.031Z,2.60
2022-12-22T23:53:15.144Z,2.63
2022-12-22T23:55:18.160Z,1.80
2022-12-22T23:57:20.964Z,1.60
2022-12-22T23:59:23.800Z,2.20
